Accueil
METAR-TAF:

METAR-TAF

Aéroports :

Wittering, Angleterre

latitude: 52-37N, longitude: 000-28W, altitude: 84 m

Observation

Le bulletin a été fait il y a 36 minutes, à 13:50 UTC
Vent 15 kt de ouest/sud-ouest
Température 21°C
Humidité 64%
Pression 1022 hPa
Visibilité 10 km ou plus
Nuages fragmentés à une hauteur de 3400 ft

METAR: EGXT 221350Z 24015KT 9999 BKN034 21/14 Q1022 RMK BLU

Heure: 15:26 (14:26 UTC)

Prévision

Le bulletin a été fait il y a 3 heures et 53 minutes, à 10:33 UTC
Prévision valable du 22 à 12 UTC au 22 à 18 UTC
Vent 14 kt de sud-ouest
Visibilité 10 km ou plus
Nuages épars à une hauteur de 3000 ft

TAF: EGXT 221033Z 2212/2218 23014KT 9999 SCT030

Observations et prévisions météorologiques de plus de 4000 aéroports (messages METAR et TAF).

Les stations disponibles sont représentées par des disques jaunes et rouges sur la carte.

Passer la souris dessus pour voir le nom de la station.

Cliquer dessus pour voir les observations et prévisions météorologiques.

Pour changer de carte: cliquez sur les boutons verts avec une croix noire pour zoomer, sur le bouton vert avec un tiret pour effectuer un zoom arrière, ou sur les flèches vertes pour les cartes adjacentes.


METAR-TAF: